TimeCDT,TemperatureF,Dew PointF,Humidity,Sea Level PressureIn,VisibilityMPH,Wind Direction,Wind SpeedMPH,Gust SpeedMPH,PrecipitationIn,Events,Conditions,WindDirDegrees,DateUTC
12:53 AM,48.9,39.0,69,29.96,10.0,NNE,3.5,-,N/A,,Clear,30,2012-11-02 05:53:00
1:53 AM,45.0,37.9,76,29.95,10.0,East,3.5,-,N/A,,Clear,100,2012-11-02 06:53:00
2:53 AM,46.9,39.0,74,29.96,10.0,East,4.6,-,N/A,,Clear,80,2012-11-02 07:53:00
3:53 AM,45.0,37.9,76,29.96,10.0,NE,4.6,-,N/A,,Clear,50,2012-11-02 08:53:00
4:53 AM,46.0,39.0,76,29.96,9.0,ENE,8.1,-,N/A,,Clear,70,2012-11-02 09:53:00
5:53 AM,44.1,37.9,79,29.95,9.0,East,9.2,-,N/A,,Clear,80,2012-11-02 10:53:00
6:53 AM,44.1,37.0,76,29.95,9.0,East,9.2,-,N/A,,Clear,80,2012-11-02 11:53:00
7:53 AM,45.0,36.0,71,29.95,10.0,East,9.2,-,N/A,,Clear,90,2012-11-02 12:53:00
8:53 AM,46.9,36.0,66,29.96,9.0,East,10.4,-,N/A,,Clear,100,2012-11-02 13:53:00
9:53 AM,51.1,36.0,56,29.95,10.0,ESE,13.8,-,N/A,,Clear,110,2012-11-02 14:53:00
10:53 AM,54.0,37.0,53,29.94,10.0,ESE,16.1,21.9,N/A,,Clear,110,2012-11-02 15:53:00
11:53 AM,59.0,37.0,44,29.91,9.0,East,17.3,-,N/A,,Clear,100,2012-11-02 16:53:00
12:53 PM,62.1,39.0,43,29.88,10.0,East,15.0,-,N/A,,Clear,100,2012-11-02 17:53:00
1:53 PM,66.0,39.9,38,29.85,10.0,ESE,15.0,-,N/A,,Clear,110,2012-11-02 18:53:00
2:53 PM,68.0,42.1,39,29.83,9.0,ESE,11.5,-,N/A,,Clear,110,2012-11-02 19:53:00
3:53 PM,66.9,42.1,40,29.85,10.0,East,9.2,-,N/A,,Clear,100,2012-11-02 20:53:00
4:53 PM,66.0,43.0,43,29.85,10.0,East,11.5,-,N/A,,Clear,100,2012-11-02 21:53:00
5:53 PM,64.0,42.1,45,29.86,10.0,ENE,6.9,-,N/A,,Clear,70,2012-11-02 22:53:00
6:53 PM,61.0,41.0,48,29.89,10.0,NNE,8.1,-,N/A,,Clear,30,2012-11-02 23:53:00
7:53 PM,57.0,35.1,44,29.92,10.0,NE,10.4,-,N/A,,Clear,40,2012-11-03 00:53:00
8:53 PM,55.9,34.0,44,29.92,10.0,ENE,8.1,-,N/A,,Clear,60,2012-11-03 01:53:00
9:53 PM,52.0,33.1,49,29.94,10.0,NNE,5.8,-,N/A,,Clear,20,2012-11-03 02:53:00
10:53 PM,50.0,33.1,52,29.96,10.0,North,10.4,-,N/A,,Clear,360,2012-11-03 03:53:00
11:53 PM,48.0,32.0,54,29.98,10.0,North,11.5,-,N/A,,Clear,360,2012-11-03 04:53:00